createdAt,value
2019-01-10T00:00:12.486Z,96591.82
2019-01-10T00:02:43.147Z,96601.13
2019-01-10T00:05:17.261Z,96594.14
2019-01-10T00:07:57.654Z,96594.81
2019-01-10T00:10:36.565Z,96594.92
2019-01-10T00:13:11.896Z,96603.47
2019-01-10T00:15:40.981Z,96608.46
2019-01-10T00:18:10.065Z,96610.84
2019-01-10T00:20:39.177Z,96608.06
2019-01-10T00:23:09.825Z,96600.05
2019-01-10T00:25:38.921Z,96601.77
2019-01-10T00:28:10.836Z,96599.85
2019-01-10T00:30:40.519Z,96604.45
2019-01-10T00:33:09.613Z,96608.52
2019-01-10T00:35:38.724Z,96266.27
2019-01-10T00:38:10.646Z,96609.36
2019-01-10T00:40:39.739Z,96611.14
2019-01-10T00:43:10.417Z,96624.80
2019-01-10T00:45:39.531Z,96292.87
2019-01-10T00:48:08.601Z,96632.14
2019-01-10T00:50:38.067Z,96627.94
2019-01-10T00:53:07.144Z,96629.81
2019-01-10T00:55:40.460Z,96634.11
2019-01-10T00:58:12.588Z,96638.98
2019-01-10T01:00:44.480Z,96646.39
2019-01-10T01:03:16.006Z,96650.10
2019-01-10T01:05:46.565Z,96653.01
2019-01-10T01:08:17.399Z,96656.48
2019-01-10T01:10:49.477Z,96652.79
2019-01-10T01:13:21.532Z,96659.67
2019-01-10T01:15:52.143Z,96668.28
2019-01-10T01:18:21.310Z,96659.61
2019-01-10T01:20:54.077Z,96659.35
2019-01-10T01:23:35.392Z,96669.76
2019-01-10T01:26:04.521Z,96671.23
2019-01-10T01:28:33.592Z,96671.86
2019-01-10T01:31:02.689Z,96677.64
2019-01-10T01:33:33.047Z,96678.86
2019-01-10T01:36:03.254Z,96681.78
2019-01-10T01:38:32.330Z,96682.82
2019-01-10T01:41:03.927Z,96686.59
2019-01-10T01:43:34.442Z,96683.27
2019-01-10T01:46:07.779Z,96686.02
2019-01-10T01:48:40.513Z,96683.35
2019-01-10T01:51:12.000Z,96685.03
2019-01-10T01:53:42.848Z,96694.47
2019-01-10T01:56:17.275Z,96697.25
2019-01-10T01:58:46.351Z,96705.27
2019-01-10T02:01:15.451Z,96708.98
2019-01-10T02:03:44.570Z,96706.19
2019-01-10T02:06:15.314Z,96703.11
2019-01-10T02:08:49.612Z,96706.81
2019-01-10T02:11:20.184Z,96705.34
2019-01-10T02:13:50.945Z,96709.11
2019-01-10T02:16:20.024Z,96711.09
2019-01-10T02:18:49.250Z,96717.45
2019-01-10T02:21:20.192Z,96714.91
2019-01-10T02:23:50.782Z,96716.49
2019-01-10T02:26:19.942Z,96717.38
2019-01-10T02:28:49.050Z,96723.17
2019-01-10T02:31:18.147Z,96715.40
2019-01-10T02:33:47.242Z,96721.47
2019-01-10T02:36:16.346Z,96722.31
2019-01-10T02:38:49.627Z,96723.36
2019-01-10T02:41:18.722Z,96729.77
2019-01-10T02:43:47.793Z,96729.10
2019-01-10T02:46:19.500Z,96728.27
2019-01-10T02:48:48.981Z,96722.89
2019-01-10T02:51:18.430Z,96729.28
2019-01-10T02:53:48.889Z,96731.33
2019-01-10T02:56:18.049Z,96730.19
2019-01-10T02:58:48.712Z,96723.06
2019-01-10T03:01:17.798Z,96729.74
2019-01-10T03:03:46.881Z,96721.00
2019-01-10T03:06:16.003Z,96725.39
2019-01-10T03:08:46.148Z,96726.09
2019-01-10T03:11:16.249Z,96724.25
2019-01-10T03:13:46.676Z,96729.69
2019-01-10T03:16:17.902Z,96728.33
2019-01-10T03:18:53.453Z,96721.69
2019-01-10T03:21:24.203Z,96723.34
2019-01-10T03:23:56.067Z,96725.41
2019-01-10T03:26:31.119Z,96716.63
2019-01-10T03:29:05.460Z,96719.98
2019-01-10T03:31:34.702Z,96716.61
2019-01-10T03:34:05.446Z,96713.48
2019-01-10T03:36:37.503Z,96713.12
2019-01-10T03:39:09.249Z,96716.77
2019-01-10T03:41:42.194Z,96719.54
2019-01-10T03:44:13.168Z,96718.00
2019-01-10T03:46:43.687Z,96719.63
2019-01-10T03:49:23.008Z,96719.78
2019-01-10T03:51:53.456Z,96712.49
2019-01-10T03:54:29.520Z,96719.69
2019-01-10T03:56:58.629Z,96726.04
2019-01-10T03:59:29.439Z,96726.13
2019-01-10T04:01:58.523Z,96720.70
2019-01-10T04:04:28.694Z,96709.44
2019-01-10T04:06:57.787Z,96718.23
2019-01-10T04:09:27.315Z,96724.97
2019-01-10T04:11:56.464Z,96722.25
2019-01-10T04:14:25.901Z,96719.44
2019-01-10T04:16:59.175Z,96721.37
2019-01-10T04:19:35.412Z,96431.20
2019-01-10T04:22:04.533Z,96714.16
2019-01-10T04:24:38.106Z,96715.65
2019-01-10T04:27:08.370Z,96731.37
2019-01-10T04:29:37.675Z,96739.87
2019-01-10T04:32:09.945Z,96768.13
2019-01-10T04:34:39.071Z,96734.17
2019-01-10T04:37:08.182Z,96740.73
2019-01-10T04:39:37.638Z,96740.49
2019-01-10T04:42:06.706Z,96738.14
2019-01-10T04:44:44.183Z,96741.68
2019-01-10T04:47:13.476Z,96743.62
2019-01-10T04:49:44.038Z,96748.19
2019-01-10T04:52:15.287Z,96748.14
2019-01-10T04:54:47.415Z,96754.91
2019-01-10T04:57:25.521Z,96747.75
2019-01-10T04:59:54.694Z,96752.86
2019-01-10T05:02:23.810Z,96753.77
2019-01-10T05:04:54.306Z,96750.28
2019-01-10T05:07:23.442Z,96759.45
2019-01-10T05:09:59.927Z,96752.47
2019-01-10T05:12:33.507Z,96753.98
2019-01-10T05:15:04.590Z,96754.42
2019-01-10T05:17:35.015Z,96759.08
2019-01-10T05:20:06.820Z,96757.90
2019-01-10T05:22:36.022Z,96763.56
2019-01-10T05:25:05.400Z,96760.60
2019-01-10T05:27:34.571Z,96760.84
2019-01-10T05:30:05.395Z,96765.41
2019-01-10T05:32:34.607Z,96428.47
2019-01-10T05:35:05.019Z,96768.45
2019-01-10T05:37:35.620Z,96781.95
2019-01-10T05:40:09.586Z,96784.50
2019-01-10T05:42:39.019Z,96780.12
2019-01-10T05:45:12.901Z,96783.56
2019-01-10T05:47:43.320Z,96789.53
2019-01-10T05:50:14.196Z,96790.20
2019-01-10T05:52:44.713Z,96794.52
2019-01-10T05:55:19.906Z,96451.67
2019-01-10T05:57:51.849Z,96807.52
2019-01-10T06:00:26.217Z,96811.59
2019-01-10T06:02:55.468Z,96807.49
2019-01-10T06:05:30.148Z,96809.70
2019-01-10T06:07:59.454Z,96816.87
2019-01-10T06:10:30.753Z,96816.72
2019-01-10T06:13:02.493Z,96814.28
2019-01-10T06:15:31.768Z,96813.98
2019-01-10T06:18:08.450Z,96809.22
2019-01-10T06:20:37.948Z,96812.23
2019-01-10T06:23:10.730Z,96814.55
2019-01-10T06:25:39.813Z,96821.58
2019-01-10T06:28:09.324Z,96824.63
2019-01-10T06:30:38.418Z,96825.94
2019-01-10T06:33:10.269Z,96822.34
2019-01-10T06:35:40.499Z,96828.16
2019-01-10T06:38:13.067Z,96832.67
2019-01-10T06:40:42.703Z,96833.16
2019-01-10T06:43:15.047Z,96837.03
2019-01-10T06:45:44.278Z,96838.53
2019-01-10T06:48:13.712Z,96849.92
2019-01-10T06:50:44.603Z,96840.02
2019-01-10T06:53:13.917Z,96846.06
2019-01-10T06:55:44.744Z,96852.17
2019-01-10T06:58:16.562Z,96848.47
2019-01-10T07:00:46.004Z,96859.47
2019-01-10T07:03:21.755Z,96859.91
2019-01-10T07:05:51.072Z,96861.73
2019-01-10T07:08:25.764Z,96857.22
2019-01-10T07:10:58.764Z,96865.48
2019-01-10T07:13:36.019Z,96867.95
2019-01-10T07:16:10.168Z,96869.63
2019-01-10T07:18:40.007Z,96876.09
2019-01-10T07:21:11.221Z,96873.93
2019-01-10T07:23:46.308Z,96877.98
2019-01-10T07:26:19.411Z,96576.22
2019-01-10T07:28:49.226Z,96875.44
2019-01-10T07:31:28.804Z,96888.36
2019-01-10T07:34:01.954Z,96888.64
2019-01-10T07:36:31.476Z,96889.77
2019-01-10T07:39:00.759Z,96891.75
2019-01-10T07:41:30.976Z,96888.06
2019-01-10T07:44:00.185Z,96892.95
2019-01-10T07:46:31.050Z,96886.03
2019-01-10T07:49:00.417Z,96887.05
2019-01-10T07:51:45.691Z,96886.58
2019-01-10T07:54:15.431Z,96891.00
2019-01-10T07:56:44.616Z,96889.68
2019-01-10T07:59:18.985Z,96897.17
2019-01-10T08:01:48.680Z,96897.03
2019-01-10T08:04:19.385Z,96907.15
2019-01-10T08:06:49.773Z,96946.82
2019-01-10T08:09:20.059Z,96915.70
2019-01-10T08:12:00.193Z,96910.43
2019-01-10T08:14:24.113Z,96569.73
2019-01-10T08:16:55.887Z,96926.62
2019-01-10T08:19:27.325Z,96922.02
2019-01-10T08:21:59.808Z,96923.95
2019-01-10T08:24:28.974Z,96928.20
2019-01-10T08:26:58.430Z,96940.45
2019-01-10T08:29:27.881Z,96938.63
2019-01-10T08:32:04.157Z,96935.95
2019-01-10T08:34:37.210Z,96941.35
2019-01-10T08:37:06.308Z,96953.15
2019-01-10T08:39:42.303Z,96954.63
2019-01-10T08:42:13.200Z,96953.80
2019-01-10T08:44:45.617Z,96950.20
2019-01-10T08:47:17.944Z,96959.19
2019-01-10T08:49:47.111Z,96958.60
2019-01-10T08:52:18.770Z,96963.73
2019-01-10T08:54:47.982Z,96964.00
2019-01-10T08:57:18.719Z,96970.97
2019-01-10T08:59:51.657Z,96967.81
2019-01-10T09:02:21.418Z,96967.34
2019-01-10T09:04:50.492Z,96970.53
2019-01-10T09:07:21.468Z,96974.85
2019-01-10T09:09:50.579Z,96975.31
2019-01-10T09:12:21.679Z,96976.41
2019-01-10T09:14:52.509Z,96970.86
2019-01-10T09:17:23.636Z,96975.56
2019-01-10T09:19:55.802Z,96978.89
2019-01-10T09:22:27.960Z,96983.06
2019-01-10T09:24:59.424Z,96987.41
2019-01-10T09:27:28.773Z,96987.84
2019-01-10T09:29:59.029Z,96995.39
2019-01-10T09:32:28.748Z,96995.64
2019-01-10T09:34:58.249Z,96996.01
2019-01-10T09:37:27.555Z,96998.73
2019-01-10T09:40:17.636Z,96998.94
2019-01-10T09:42:47.007Z,96999.58
2019-01-10T09:45:18.805Z,96997.60
2019-01-10T09:48:01.931Z,97002.42
2019-01-10T09:50:33.925Z,97006.34
2019-01-10T09:53:06.353Z,97002.62
2019-01-10T09:55:36.714Z,97015.89
2019-01-10T09:58:10.571Z,97015.53
2019-01-10T10:00:41.489Z,97011.55
2019-01-10T10:03:11.990Z,97016.89
2019-01-10T10:05:46.661Z,97018.27
2019-01-10T10:08:15.987Z,97018.00
2019-01-10T10:10:45.053Z,97016.55
2019-01-10T10:13:20.248Z,97022.42
2019-01-10T10:15:52.654Z,97056.26
2019-01-10T10:18:20.168Z,96953.12
2019-01-10T10:20:49.367Z,97012.94
2019-01-10T10:23:26.733Z,97021.14
2019-01-10T10:25:52.598Z,97025.89
2019-01-10T10:28:25.731Z,97023.25
2019-01-10T10:30:55.349Z,97050.01
2019-01-10T10:33:24.768Z,97023.84
2019-01-10T10:35:56.705Z,97024.96
2019-01-10T10:38:28.245Z,97033.78
2019-01-10T10:40:58.950Z,97035.52
2019-01-10T10:43:28.563Z,97023.40
2019-01-10T10:46:01.766Z,97030.23
2019-01-10T10:48:29.818Z,97032.25
2019-01-10T10:50:58.882Z,97034.88
2019-01-10T10:53:28.236Z,97031.69
2019-01-10T10:55:58.999Z,97042.08
2019-01-10T10:58:28.580Z,97035.69
2019-01-10T11:01:03.620Z,97031.56
2019-01-10T11:03:34.504Z,97038.94
2019-01-10T11:06:05.741Z,97033.67
2019-01-10T11:08:42.216Z,97037.64
2019-01-10T11:11:14.164Z,97034.52
2019-01-10T11:13:43.400Z,96690.12
2019-01-10T11:16:13.063Z,97029.30
2019-01-10T11:18:45.516Z,97033.40
2019-01-10T11:21:15.948Z,97030.88
2019-01-10T11:23:47.118Z,97028.84
2019-01-10T11:26:16.319Z,97029.58
2019-01-10T11:28:45.776Z,97028.87
2019-01-10T11:31:14.951Z,97031.55
2019-01-10T11:33:44.158Z,97027.86
2019-01-10T11:36:14.531Z,97032.26
2019-01-10T11:38:45.589Z,97029.64
2019-01-10T11:41:16.355Z,97029.92
2019-01-10T11:43:48.614Z,97026.91
2019-01-10T11:46:20.656Z,97028.17
2019-01-10T11:48:51.290Z,97019.94
2019-01-10T11:51:20.817Z,97018.61
2019-01-10T11:53:52.449Z,97017.50
2019-01-10T11:56:21.628Z,97023.09
2019-01-10T11:58:51.025Z,97017.81
2019-01-10T12:01:20.209Z,97024.62
2019-01-10T12:03:56.925Z,97022.52
2019-01-10T12:06:25.782Z,97023.45
2019-01-10T12:08:54.867Z,97015.27
2019-01-10T12:11:23.986Z,95652.85
2019-01-10T12:13:56.011Z,97016.09
2019-01-10T12:16:28.644Z,97020.58
2019-01-10T12:18:59.637Z,97016.67
2019-01-10T12:21:31.386Z,97011.97
2019-01-10T12:24:01.674Z,97015.47
2019-01-10T12:26:34.738Z,96941.52
2019-01-10T12:29:04.105Z,97009.08
2019-01-10T12:31:38.442Z,97011.77
2019-01-10T12:34:07.579Z,97012.06
2019-01-10T12:36:38.054Z,97011.69
2019-01-10T12:39:09.075Z,97021.52
2019-01-10T12:41:41.191Z,97011.79
2019-01-10T12:44:10.497Z,97010.97
2019-01-10T12:46:42.630Z,97011.32
2019-01-10T12:49:12.082Z,97007.73
2019-01-10T12:51:41.183Z,97011.52
2019-01-10T12:54:10.302Z,97012.66
2019-01-10T12:56:39.414Z,97009.83
2019-01-10T12:59:09.554Z,97007.25
2019-01-10T13:01:39.140Z,97007.53
2019-01-10T13:04:08.411Z,97005.16
2019-01-10T13:06:37.624Z,97011.59
2019-01-10T13:09:10.082Z,97006.53
2019-01-10T13:11:41.883Z,97012.33
2019-01-10T13:14:10.994Z,97013.09
2019-01-10T13:16:46.655Z,97008.38
2019-01-10T13:19:17.067Z,97008.05
2019-01-10T13:21:48.853Z,97008.56
2019-01-10T13:24:18.804Z,97008.57
2019-01-10T13:26:47.971Z,97008.17
2019-01-10T13:29:18.301Z,97016.20
2019-01-10T13:31:52.156Z,97015.66
2019-01-10T13:34:21.351Z,97018.36
2019-01-10T13:36:50.456Z,97025.27
2019-01-10T13:39:20.984Z,97031.77
2019-01-10T13:41:53.074Z,96379.09
2019-01-10T13:44:23.407Z,97021.11
2019-01-10T13:46:55.818Z,97021.52
2019-01-10T13:49:23.610Z,97019.35
2019-01-10T13:51:52.821Z,97024.52
2019-01-10T13:54:24.446Z,97030.92
2019-01-10T13:56:53.871Z,97030.66
2019-01-10T13:59:26.134Z,97026.25
2019-01-10T14:01:55.409Z,97031.70
2019-01-10T14:04:24.752Z,97037.00
2019-01-10T14:06:53.859Z,97041.55
2019-01-10T14:09:23.300Z,97044.00
2019-01-10T14:11:52.921Z,97045.81
2019-01-10T14:14:22.520Z,97047.09
2019-01-10T14:16:55.373Z,97052.80
2019-01-10T14:19:28.568Z,97049.80
2019-01-10T14:22:01.138Z,97053.57
2019-01-10T14:24:34.225Z,97060.31
2019-01-10T14:27:05.329Z,97056.65
2019-01-10T14:29:34.425Z,97056.63
2019-01-10T14:32:03.512Z,97058.65
2019-01-10T14:34:32.711Z,97064.18
2019-01-10T14:37:01.819Z,97069.98
2019-01-10T14:39:31.340Z,97066.70
2019-01-10T14:42:05.035Z,97067.23
2019-01-10T14:44:35.901Z,97069.87
2019-01-10T14:47:07.743Z,97072.44
2019-01-10T14:49:38.804Z,97072.22
2019-01-10T14:52:11.963Z,97077.22
2019-01-10T14:54:41.108Z,97075.74
2019-01-10T14:57:11.370Z,97077.39
2019-01-10T14:59:43.554Z,97080.75
2019-01-10T15:02:12.654Z,97078.27
2019-01-10T15:04:44.453Z,97079.28
2019-01-10T15:07:16.104Z,97077.47
2019-01-10T15:09:45.938Z,97082.78
2019-01-10T15:12:15.379Z,97086.73
2019-01-10T15:14:44.539Z,97089.38
2019-01-10T15:17:15.900Z,97086.94
2019-01-10T15:19:47.524Z,97093.09
2019-01-10T15:22:19.620Z,97093.63
2019-01-10T15:24:48.799Z,97097.98
2019-01-10T15:27:17.929Z,95645.07
2019-01-10T15:29:48.377Z,97105.23
2019-01-10T15:32:20.942Z,97102.27
2019-01-10T15:34:50.064Z,97099.83
2019-01-10T15:37:23.774Z,97101.58
2019-01-10T15:39:53.105Z,97101.27
2019-01-10T15:42:22.288Z,97110.20
2019-01-10T15:44:55.148Z,97109.63
2019-01-10T15:47:24.357Z,97109.80
2019-01-10T15:49:53.843Z,97114.02
2019-01-10T15:52:22.996Z,97117.43
2019-01-10T15:54:54.562Z,97118.95
2019-01-10T15:57:25.055Z,97115.81
2019-01-10T15:59:56.102Z,97115.95
2019-01-10T16:02:26.964Z,97118.48
2019-01-10T16:04:56.301Z,97119.51
2019-01-10T16:07:27.764Z,97120.77
2019-01-10T16:09:59.931Z,97121.22
2019-01-10T16:12:29.450Z,97131.12
2019-01-10T16:15:01.061Z,97128.60
2019-01-10T16:17:30.180Z,97127.46
2019-01-10T16:19:59.676Z,97135.02
2019-01-10T16:22:29.663Z,97138.02
2019-01-10T16:24:58.801Z,97138.59
2019-01-10T16:27:30.350Z,97139.58
2019-01-10T16:29:59.435Z,97140.81
2019-01-10T16:32:29.439Z,97139.50
2019-01-10T16:34:58.616Z,97149.63
2019-01-10T16:37:27.674Z,97144.91
2019-01-10T16:39:58.221Z,97148.33
2019-01-10T16:42:27.299Z,97152.00
2019-01-10T16:44:58.971Z,97153.34
2019-01-10T16:47:31.600Z,97146.09
2019-01-10T16:49:58.883Z,97157.45
2019-01-10T16:52:27.967Z,97156.76
2019-01-10T16:54:57.338Z,97158.54
2019-01-10T16:57:29.473Z,97150.10
2019-01-10T16:59:59.505Z,97149.92
2019-01-10T17:02:36.158Z,97150.20
2019-01-10T17:05:02.743Z,97157.43
2019-01-10T17:07:34.309Z,97158.55
2019-01-10T17:10:03.454Z,97153.89
2019-01-10T17:12:33.060Z,97157.66
2019-01-10T17:15:06.440Z,97162.92
2019-01-10T17:17:44.321Z,97163.80
2019-01-10T17:20:27.853Z,97162.48
2019-01-10T17:22:58.693Z,97162.60
2019-01-10T17:25:28.202Z,97168.84
2019-01-10T17:28:01.490Z,97165.66
2019-01-10T17:30:31.394Z,97166.43
2019-01-10T17:33:02.436Z,97169.47
2019-01-10T17:35:33.328Z,97164.04
2019-01-10T17:38:03.571Z,97171.87
2019-01-10T17:40:34.884Z,97166.91
2019-01-10T17:43:07.604Z,97172.84
2019-01-10T17:45:43.265Z,97207.39
2019-01-10T17:48:14.574Z,97179.30
2019-01-10T17:50:43.694Z,97172.23
2019-01-10T17:53:13.914Z,97182.17
2019-01-10T17:55:44.850Z,97181.06
2019-01-10T17:58:13.933Z,97196.08
2019-01-10T18:00:43.170Z,97188.41
2019-01-10T18:03:12.453Z,97193.42
2019-01-10T18:05:44.507Z,97192.41
2019-01-10T18:08:16.540Z,97190.19
2019-01-10T18:10:48.750Z,97193.87
2019-01-10T18:13:18.243Z,97200.67
2019-01-10T18:15:48.453Z,97201.09
2019-01-10T18:18:20.936Z,97200.81
2019-01-10T18:20:50.053Z,97199.94
2019-01-10T18:23:19.228Z,97202.09
2019-01-10T18:25:48.328Z,96382.48
2019-01-10T18:28:17.494Z,97197.90
2019-01-10T18:30:46.599Z,97209.52
2019-01-10T18:33:18.987Z,97205.88
2019-01-10T18:35:50.505Z,97208.05
2019-01-10T18:38:20.636Z,97206.41
2019-01-10T18:40:52.104Z,97213.05
2019-01-10T18:43:25.584Z,97209.34
2019-01-10T18:45:54.754Z,97210.60
2019-01-10T18:48:23.964Z,97211.80
2019-01-10T18:50:54.859Z,97210.03
2019-01-10T18:53:24.004Z,97202.63
2019-01-10T18:55:53.896Z,97209.26
2019-01-10T18:58:25.785Z,97212.31
2019-01-10T19:00:58.613Z,97207.52
2019-01-10T19:03:28.097Z,97213.75
2019-01-10T19:05:57.285Z,97215.55
2019-01-10T19:08:26.379Z,95704.89
2019-01-10T19:10:58.182Z,97212.47
2019-01-10T19:13:35.395Z,97210.91
2019-01-10T19:16:04.502Z,97210.23
2019-01-10T19:18:33.596Z,97210.41
2019-01-10T19:21:03.044Z,97243.95
2019-01-10T19:23:32.341Z,97214.43
2019-01-10T19:26:03.140Z,97213.32
2019-01-10T19:28:32.236Z,97219.08
2019-01-10T19:31:01.372Z,97219.29
2019-01-10T19:33:35.771Z,97223.11
2019-01-10T19:36:05.071Z,97220.59
2019-01-10T19:38:34.212Z,97218.49
2019-01-10T19:41:03.323Z,97221.00
2019-01-10T19:43:32.412Z,97219.53
2019-01-10T19:46:01.652Z,97214.65
2019-01-10T19:48:30.782Z,97211.22
2019-01-10T19:51:01.091Z,97216.83
2019-01-10T19:53:33.383Z,97212.53
2019-01-10T19:56:02.482Z,97213.50
2019-01-10T19:58:33.287Z,97227.44
2019-01-10T20:01:07.108Z,97221.06
2019-01-10T20:03:38.414Z,97222.53
2019-01-10T20:06:08.892Z,97233.62
2019-01-10T20:08:37.982Z,97230.77
2019-01-10T20:11:08.928Z,97230.50
2019-01-10T20:13:38.338Z,96918.18
2019-01-10T20:16:07.708Z,97227.81
2019-01-10T20:18:37.065Z,97232.80
2019-01-10T20:21:06.354Z,97237.52
2019-01-10T20:23:36.822Z,97241.25
2019-01-10T20:26:09.246Z,97241.63
2019-01-10T20:28:42.120Z,97238.79
2019-01-10T20:31:11.625Z,97246.32
2019-01-10T20:33:41.423Z,97249.68
2019-01-10T20:36:10.708Z,97246.89
2019-01-10T20:38:41.580Z,97251.63
2019-01-10T20:41:12.426Z,97248.44
2019-01-10T20:43:41.584Z,97257.75
2019-01-10T20:46:10.673Z,97252.80
2019-01-10T20:48:39.822Z,97252.80
2019-01-10T20:51:09.099Z,97254.84
2019-01-10T20:53:40.845Z,97253.77
2019-01-10T20:56:09.996Z,97244.98
2019-01-10T20:58:39.278Z,97248.87
2019-01-10T21:01:13.013Z,97255.39
2019-01-10T21:03:42.150Z,97252.68
2019-01-10T21:06:12.399Z,97256.19
2019-01-10T21:08:41.459Z,97259.89
2019-01-10T21:11:10.656Z,97260.98
2019-01-10T21:13:41.315Z,97255.64
2019-01-10T21:16:10.914Z,97254.34
2019-01-10T21:18:41.752Z,97255.56
2019-01-10T21:21:13.935Z,97258.48
2019-01-10T21:23:43.027Z,97258.77
2019-01-10T21:26:14.035Z,97249.19
2019-01-10T21:28:43.139Z,97248.09
2019-01-10T21:31:15.068Z,97248.97
2019-01-10T21:33:45.684Z,97256.58
2019-01-10T21:36:14.882Z,97261.56
2019-01-10T21:38:43.991Z,97259.73
2019-01-10T21:41:13.184Z,97265.41
2019-01-10T21:43:47.164Z,97273.86
2019-01-10T21:46:16.358Z,97273.54
2019-01-10T21:48:47.027Z,97274.71
2019-01-10T21:51:16.253Z,97277.16
2019-01-10T21:53:45.357Z,97275.52
2019-01-10T21:56:14.454Z,97275.00
2019-01-10T21:58:44.988Z,97269.13
2019-01-10T22:01:17.019Z,97272.55
2019-01-10T22:03:51.103Z,97272.33
2019-01-10T22:06:22.946Z,97270.33
2019-01-10T22:08:57.126Z,97271.58
2019-01-10T22:11:26.318Z,97293.99
2019-01-10T22:13:57.861Z,97274.99
2019-01-10T22:16:26.961Z,97268.86
2019-01-10T22:18:56.069Z,97263.21
2019-01-10T22:21:31.356Z,97265.47
2019-01-10T22:24:02.042Z,97262.53
2019-01-10T22:26:31.128Z,97265.88
2019-01-10T22:29:00.309Z,97253.42
2019-01-10T22:31:29.407Z,97257.66
2019-01-10T22:33:58.509Z,97258.18
2019-01-10T22:36:31.429Z,97247.46
2019-01-10T22:39:00.549Z,97246.97
2019-01-10T22:41:30.309Z,97248.61
2019-01-10T22:44:02.528Z,97247.84
2019-01-10T22:46:31.676Z,97252.07
2019-01-10T22:49:02.655Z,97259.58
2019-01-10T22:51:31.760Z,97253.52
2019-01-10T22:54:00.824Z,97247.55
2019-01-10T22:56:31.991Z,97254.94
2019-01-10T22:59:00.874Z,97254.05
2019-01-10T23:01:51.927Z,97254.64
2019-01-10T23:04:33.250Z,97248.46
2019-01-10T23:07:10.156Z,97246.25
2019-01-10T23:09:39.342Z,97251.32
2019-01-10T23:12:13.411Z,97249.92
2019-01-10T23:14:44.152Z,97253.51
2019-01-10T23:17:15.853Z,97243.52
2019-01-10T23:19:57.410Z,97259.23
2019-01-10T23:22:26.514Z,97253.39
2019-01-10T23:25:02.221Z,97252.04
2019-01-10T23:27:33.596Z,97259.89
2019-01-10T23:30:02.697Z,97255.21
2019-01-10T23:32:31.935Z,97265.72
2019-01-10T23:35:01.050Z,97255.47
2019-01-10T23:37:32.251Z,97261.86
2019-01-10T23:40:01.347Z,97266.38
2019-01-10T23:42:32.122Z,97260.94
2019-01-10T23:45:01.205Z,97249.81
2019-01-10T23:47:30.343Z,97248.19
2019-01-10T23:49:59.541Z,97250.06
2019-01-10T23:52:31.141Z,97250.64
2019-01-10T23:55:00.255Z,97251.69
2019-01-10T23:57:29.953Z,97259.83
